CheckWX is a tool to help pilots better visualize weather data.  It is not intended as a substitute for an official pre-flight weather briefing.

10:53:14 UTC

LQTZ METAR
Tuzla International Airport
Tuzla, Bosnia and Herzegovina
Current

23 mins ago

LQTZ 141030Z 29005KT 8000 FEW008 SCT012 OVC025 05/04 Q1001
Observed
Dec-14 @ 10:30 UTC
Wind
  • 290° at 5 KTS
Visibility
8,000 meters
Flight Rules
MVFR
Cloud Levels
  • Few at 800' AGL
  • Scattered at 1,200' AGL
  • Overcast at 2,500' AGL
Temperature
C / 41°F
Dewpoint
C / 39°F
Humidity
93%
Altimeter
29.56" Hg
Pressure
1000.92 hPa
Previous

53 mins ago

LQTZ 141000Z 30009KT 6000 FEW008 BKN012 OVC020 05/04 Q1000
Observed
Dec-14 @ 10:00 UTC
Wind
  • 300° at 9 KTS
Visibility
6,000 meters
Flight Rules
MVFR
Cloud Levels
  • Few at 800' AGL
  • Broken at 1,200' AGL
  • Overcast at 2,000' AGL
Temperature
C / 41°F
Dewpoint
C / 39°F
Humidity
93%
Altimeter
29.53" Hg
Pressure
999.92 hPa
Previous

1 hour ago

LQTZ 140930Z 29006KT 4000 -RA BR FEW005 BKN008 OVC016 05/04 Q1000
Observed
Dec-14 @ 09:30 UTC
Wind
  • 290° at 6 KTS
Visibility
4,000 meters
Flight Rules
IFR
Conditions
Light Rain, Mist
Cloud Levels
  • Few at 500' AGL
  • Broken at 800' AGL
  • Overcast at 1,600' AGL
Temperature
C / 41°F
Dewpoint
C / 39°F
Humidity
93%
Altimeter
29.53" Hg
Pressure
999.92 hPa